Boeuf, Argentina
Current Conditions -  °F | °C
As of 5:00 PM on Sunday 23 Nov 2014 (Local Time) from SAOC Reporting Station
Clear Clear  
Wind Chill: 88°   Ceiling: Unl
Heat Index: 88°   Visibility: 6mi
Dew Point: 39°   Wind: 32mph
Humidity: 18%   Direction: 360°N
Pressure: 29.59"   Gusts: 48mph
Location:  35.94°S, 64.37°W
Report Text: SAOC 232000Z 36028G42KT CAVOK 31/04 Q1002
Loading
Personal Weather Stations






























Interactive Weather Map New forecast layout! Learn more

10-Day Weather Forecast

Advertisements
Track Severe Weather on mobile